sensor_id;sensor_type;location;lat;lon;timestamp;pressure;altitude;pressure_sealevel;temperature;humidity
55066;BME280;40964;42.114;24.220;2023-10-09T00:00:59;98142.47;;;20.53;49.42
55066;BME280;40964;42.114;24.220;2023-10-09T00:03:29;98147.00;;;20.58;49.21
55066;BME280;40964;42.114;24.220;2023-10-09T00:05:55;98142.72;;;20.62;49.42
55066;BME280;40964;42.114;24.220;2023-10-09T00:08:21;98145.41;;;20.57;49.29
55066;BME280;40964;42.114;24.220;2023-10-09T00:10:48;98150.22;;;20.60;49.17
55066;BME280;40964;42.114;24.220;2023-10-09T00:13:26;98144.06;;;20.59;49.71
55066;BME280;40964;42.114;24.220;2023-10-09T00:16:04;98144.31;;;20.63;49.35
55066;BME280;40964;42.114;24.220;2023-10-09T00:18:34;98143.28;;;20.59;49.29
55066;BME280;40964;42.114;24.220;2023-10-09T00:21:00;98148.63;;;20.59;49.82
55066;BME280;40964;42.114;24.220;2023-10-09T00:23:27;98147.00;;;20.58;49.63
55066;BME280;40964;42.114;24.220;2023-10-09T00:25:53;98134.69;;;20.57;49.55
55066;BME280;40964;42.114;24.220;2023-10-09T00:28:38;98127.78;;;20.51;50.50
55066;BME280;40964;42.114;24.220;2023-10-09T00:31:09;98134.22;;;20.50;50.04
55066;BME280;40964;42.114;24.220;2023-10-09T00:33:40;98143.84;;;20.40;50.46
55066;BME280;40964;42.114;24.220;2023-10-09T00:36:08;98148.63;;;20.38;50.24
55066;BME280;40964;42.114;24.220;2023-10-09T00:38:39;98144.63;;;20.36;50.28
55066;BME280;40964;42.114;24.220;2023-10-09T00:41:18;98139.28;;;20.36;50.26
55066;BME280;40964;42.114;24.220;2023-10-09T00:43:54;98146.50;;;20.30;50.68
55066;BME280;40964;42.114;24.220;2023-10-09T00:46:24;98135.31;;;20.23;50.79
55066;BME280;40964;42.114;24.220;2023-10-09T00:48:54;98149.47;;;20.24;51.22
55066;BME280;40964;42.114;24.220;2023-10-09T00:51:21;98150.28;;;20.19;51.11
55066;BME280;40964;42.114;24.220;2023-10-09T00:53:49;98155.34;;;20.26;50.92
55066;BME280;40964;42.114;24.220;2023-10-09T00:56:19;98145.72;;;20.25;50.99
55066;BME280;40964;42.114;24.220;2023-10-09T00:58:47;98147.06;;;20.32;50.70
55066;BME280;40964;42.114;24.220;2023-10-09T01:01:15;98141.72;;;20.32;51.13
55066;BME280;40964;42.114;24.220;2023-10-09T01:03:42;98140.63;;;20.33;50.77
55066;BME280;40964;42.114;24.220;2023-10-09T01:06:08;98139.03;;;20.32;50.86
55066;BME280;40964;42.114;24.220;2023-10-09T01:08:35;98142.78;;;20.26;50.75
55066;BME280;40964;42.114;24.220;2023-10-09T01:13:40;98175.88;;;20.30;51.01
55066;BME280;40964;42.114;24.220;2023-10-09T01:16:11;98175.34;;;20.28;50.82
55066;BME280;40964;42.114;24.220;2023-10-09T01:18:41;98176.72;;;20.26;50.87
55066;BME280;40964;42.114;24.220;2023-10-09T01:21:11;98163.34;;;20.26;51.03
55066;BME280;40964;42.114;24.220;2023-10-09T01:23:41;98164.69;;;20.23;51.03
55066;BME280;40964;42.114;24.220;2023-10-09T01:26:27;98170.31;;;20.17;51.06
55066;BME280;40964;42.114;24.220;2023-10-09T01:28:58;98177.78;;;20.15;51.24
55066;BME280;40964;42.114;24.220;2023-10-09T01:31:26;98182.06;;;20.10;51.26
55066;BME280;40964;42.114;24.220;2023-10-09T01:34:09;98185.53;;;20.11;51.08
55066;BME280;40964;42.114;24.220;2023-10-09T01:36:37;98170.84;;;20.08;51.55
55066;BME280;40964;42.114;24.220;2023-10-09T01:39:05;98169.50;;;20.01;52.29
55066;BME280;40964;42.114;24.220;2023-10-09T01:41:51;98180.19;;;19.91;52.70
55066;BME280;40964;42.114;24.220;2023-10-09T01:44:31;98179.16;;;19.87;53.42
55066;BME280;40964;42.114;24.220;2023-10-09T01:47:06;98197.00;;;19.81;52.67
55066;BME280;40964;42.114;24.220;2023-10-09T01:49:39;98192.22;;;19.83;52.79
55066;BME280;40964;42.114;24.220;2023-10-09T01:52:09;98199.16;;;19.79;53.03
55066;BME280;40964;42.114;24.220;2023-10-09T01:54:39;98191.66;;;19.76;53.28
55066;BME280;40964;42.114;24.220;2023-10-09T01:57:12;98203.69;;;19.78;53.33
55066;BME280;40964;42.114;24.220;2023-10-09T01:59:41;98200.47;;;19.76;53.39
55066;BME280;40964;42.114;24.220;2023-10-09T02:02:16;98216.78;;;19.80;52.90
55066;BME280;40964;42.114;24.220;2023-10-09T02:05:04;98221.06;;;19.86;52.71
55066;BME280;40964;42.114;24.220;2023-10-09T02:07:37;98225.56;;;19.85;53.53
55066;BME280;40964;42.114;24.220;2023-10-09T02:10:24;98237.06;;;19.86;52.99
55066;BME280;40964;42.114;24.220;2023-10-09T02:12:50;98223.97;;;19.74;53.55
55066;BME280;40964;42.114;24.220;2023-10-09T02:15:26;98212.72;;;19.67;53.48
55066;BME280;40964;42.114;24.220;2023-10-09T02:18:16;98219.91;;;19.56;54.22
55066;BME280;40964;42.114;24.220;2023-10-09T02:23:38;98236.16;;;19.50;54.24
55066;BME280;40964;42.114;24.220;2023-10-09T02:26:04;98245.22;;;19.44;54.60
55066;BME280;40964;42.114;24.220;2023-10-09T02:28:32;98260.13;;;19.40;54.57
55066;BME280;40964;42.114;24.220;2023-10-09T02:31:01;98265.47;;;19.35;54.64
55066;BME280;40964;42.114;24.220;2023-10-09T02:36:10;98264.63;;;19.24;54.50
55066;BME280;40964;42.114;24.220;2023-10-09T02:38:38;98274.72;;;19.17;54.25
55066;BME280;40964;42.114;24.220;2023-10-09T02:41:06;98275.75;;;19.11;54.55
55066;BME280;40964;42.114;24.220;2023-10-09T02:43:33;98286.41;;;19.11;54.52
55066;BME280;40964;42.114;24.220;2023-10-09T02:46:02;98299.22;;;19.09;54.62
55066;BME280;40964;42.114;24.220;2023-10-09T02:48:38;98302.59;;;18.94;53.72
55066;BME280;40964;42.114;24.220;2023-10-09T02:51:08;98311.84;;;18.81;53.27
55066;BME280;40964;42.114;24.220;2023-10-09T02:53:40;98319.50;;;18.73;53.51
55066;BME280;40964;42.114;24.220;2023-10-09T02:56:06;98311.69;;;18.61;54.12
55066;BME280;40964;42.114;24.220;2023-10-09T02:58:39;98325.38;;;18.69;54.15
55066;BME280;40964;42.114;24.220;2023-10-09T03:01:12;98338.91;;;18.68;53.79
55066;BME280;40964;42.114;24.220;2023-10-09T03:03:42;98335.41;;;18.62;54.15
55066;BME280;40964;42.114;24.220;2023-10-09T03:06:14;98338.06;;;18.62;54.17
55066;BME280;40964;42.114;24.220;2023-10-09T03:08:44;98333.47;;;18.58;53.75
55066;BME280;40964;42.114;24.220;2023-10-09T03:11:13;98337.25;;;18.62;53.59
55066;BME280;40964;42.114;24.220;2023-10-09T03:13:41;98344.75;;;18.65;54.00
55066;BME280;40964;42.114;24.220;2023-10-09T03:16:08;98345.03;;;18.68;54.13
55066;BME280;40964;42.114;24.220;2023-10-09T03:18:39;98338.59;;;18.64;53.61
55066;BME280;40964;42.114;24.220;2023-10-09T03:21:05;98349.56;;;18.68;53.44
55066;BME280;40964;42.114;24.220;2023-10-09T03:23:31;98354.03;;;18.62;53.26
55066;BME280;40964;42.114;24.220;2023-10-09T03:25:57;98355.41;;;18.65;53.27
55066;BME280;40964;42.114;24.220;2023-10-09T03:28:24;98356.63;;;18.52;53.55
55066;BME280;40964;42.114;24.220;2023-10-09T03:30:49;98361.38;;;18.50;53.39
55066;BME280;40964;42.114;24.220;2023-10-09T03:33:17;98364.84;;;18.51;53.80
55066;BME280;40964;42.114;24.220;2023-10-09T03:35:42;98372.09;;;18.55;53.74
55066;BME280;40964;42.114;24.220;2023-10-09T03:38:08;98375.31;;;18.57;53.82
55066;BME280;40964;42.114;24.220;2023-10-09T03:40:41;98377.13;;;18.52;53.13
55066;BME280;40964;42.114;24.220;2023-10-09T03:43:08;98376.09;;;18.58;53.04
55066;BME280;40964;42.114;24.220;2023-10-09T03:45:36;98376.66;;;18.60;52.96
55066;BME280;40964;42.114;24.220;2023-10-09T03:48:04;98382.16;;;18.48;53.62
55066;BME280;40964;42.114;24.220;2023-10-09T03:50:49;98393.13;;;18.52;53.36
55066;BME280;40964;42.114;24.220;2023-10-09T03:53:27;98390.47;;;18.52;53.20
55066;BME280;40964;42.114;24.220;2023-10-09T03:55:55;98395.78;;;18.52;52.99
55066;BME280;40964;42.114;24.220;2023-10-09T03:58:21;98393.25;;;18.40;53.05
55066;BME280;40964;42.114;24.220;2023-10-09T04:00:47;98399.03;;;18.32;53.56
55066;BME280;40964;42.114;24.220;2023-10-09T04:03:15;98400.44;;;18.12;54.02
55066;BME280;40964;42.114;24.220;2023-10-09T04:05:41;98416.38;;;18.07;53.94
55066;BME280;40964;42.114;24.220;2023-10-09T04:08:09;98396.00;;;17.96;54.53
55066;BME280;40964;42.114;24.220;2023-10-09T04:10:38;98405.72;;;18.07;54.56
55066;BME280;40964;42.114;24.220;2023-10-09T04:13:19;98403.88;;;18.08;53.79
55066;BME280;40964;42.114;24.220;2023-10-09T04:15:51;98402.94;;;17.97;53.67
55066;BME280;40964;42.114;24.220;2023-10-09T04:18:19;98408.25;;;17.97;53.42
55066;BME280;40964;42.114;24.220;2023-10-09T04:20:45;98426.81;;;17.70;53.74
55066;BME280;40964;42.114;24.220;2023-10-09T04:23:30;98424.50;;;17.57;54.27
55066;BME280;40964;42.114;24.220;2023-10-09T04:26:18;98429.34;;;17.43;54.80
55066;BME280;40964;42.114;24.220;2023-10-09T04:28:46;98434.31;;;17.35;54.70
55066;BME280;40964;42.114;24.220;2023-10-09T04:31:16;98430.25;;;17.32;54.46
55066;BME280;40964;42.114;24.220;2023-10-09T04:33:46;98432.88;;;17.27;54.86
55066;BME280;40964;42.114;24.220;2023-10-09T04:36:19;98439.94;;;17.21;54.96
55066;BME280;40964;42.114;24.220;2023-10-09T04:38:49;98447.63;;;17.18;55.36
55066;BME280;40964;42.114;24.220;2023-10-09T04:41:40;98449.06;;;16.92;55.91
55066;BME280;40964;42.114;24.220;2023-10-09T04:44:11;98462.22;;;16.70;57.12
55066;BME280;40964;42.114;24.220;2023-10-09T04:46:50;98470.53;;;16.62;57.97
55066;BME280;40964;42.114;24.220;2023-10-09T04:49:37;98470.66;;;16.38;58.06
55066;BME280;40964;42.114;24.220;2023-10-09T04:52:21;98467.00;;;15.87;58.27
55066;BME280;40964;42.114;24.220;2023-10-09T04:54:57;98471.06;;;15.78;59.45
55066;BME280;40964;42.114;24.220;2023-10-09T04:57:41;98473.00;;;15.71;58.70
55066;BME280;40964;42.114;24.220;2023-10-09T05:00:14;98476.63;;;15.65;58.94
55066;BME280;40964;42.114;24.220;2023-10-09T05:03:02;98472.44;;;15.46;59.16
55066;BME280;40964;42.114;24.220;2023-10-09T05:05:38;98480.84;;;15.19;59.82
55066;BME280;40964;42.114;24.220;2023-10-09T05:08:10;98485.69;;;15.11;59.81
55066;BME280;40964;42.114;24.220;2023-10-09T05:10:58;98498.44;;;15.14;59.85
55066;BME280;40964;42.114;24.220;2023-10-09T05:16:14;98512.13;;;14.99;59.66
55066;BME280;40964;42.114;24.220;2023-10-09T05:18:53;98510.66;;;15.03;59.89
55066;BME280;40964;42.114;24.220;2023-10-09T05:21:25;98517.19;;;15.00;60.31
55066;BME280;40964;42.114;24.220;2023-10-09T05:23:54;98504.66;;;15.08;59.83
55066;BME280;40964;42.114;24.220;2023-10-09T05:26:55;98516.09;;;15.20;59.49
55066;BME280;40964;42.114;24.220;2023-10-09T05:29:41;98520.34;;;15.21;58.93
55066;BME280;40964;42.114;24.220;2023-10-09T05:32:26;98529.34;;;15.31;58.23
55066;BME280;40964;42.114;24.220;2023-10-09T05:35:00;98532.81;;;15.32;59.10
55066;BME280;40964;42.114;24.220;2023-10-09T05:37:32;98541.66;;;15.26;59.19
55066;BME280;40964;42.114;24.220;2023-10-09T05:40:00;98549.28;;;15.34;59.14
55066;BME280;40964;42.114;24.220;2023-10-09T05:42:30;98547.81;;;15.38;59.10
55066;BME280;40964;42.114;24.220;2023-10-09T05:45:03;98561.63;;;15.52;59.42
55066;BME280;40964;42.114;24.220;2023-10-09T05:47:48;98570.25;;;15.36;59.20
55066;BME280;40964;42.114;24.220;2023-10-09T05:50:29;98563.63;;;15.03;58.83
55066;BME280;40964;42.114;24.220;2023-10-09T05:52:58;98579.13;;;14.88;59.46
55066;BME280;40964;42.114;24.220;2023-10-09T05:55:27;98591.59;;;14.69;60.44
55066;BME280;40964;42.114;24.220;2023-10-09T05:58:02;98601.91;;;14.59;61.17
55066;BME280;40964;42.114;24.220;2023-10-09T06:00:46;98611.91;;;14.57;61.26
55066;BME280;40964;42.114;24.220;2023-10-09T06:03:30;98615.22;;;14.52;61.13
55066;BME280;40964;42.114;24.220;2023-10-09T06:06:15;98616.00;;;14.53;60.73
55066;BME280;40964;42.114;24.220;2023-10-09T06:09:05;98627.06;;;14.50;60.88
55066;BME280;40964;42.114;24.220;2023-10-09T06:11:46;98624.63;;;14.48;61.37
55066;BME280;40964;42.114;24.220;2023-10-09T06:14:19;98641.84;;;14.57;60.69
55066;BME280;40964;42.114;24.220;2023-10-09T06:17:10;98642.63;;;14.58;60.17
55066;BME280;40964;42.114;24.220;2023-10-09T06:19:39;98656.91;;;14.57;60.38
55066;BME280;40964;42.114;24.220;2023-10-09T06:22:10;98646.41;;;14.43;58.99
55066;BME280;40964;42.114;24.220;2023-10-09T06:24:54;98658.59;;;14.51;58.84
55066;BME280;40964;42.114;24.220;2023-10-09T06:27:21;98664.75;;;14.45;59.81
55066;BME280;40964;42.114;24.220;2023-10-09T06:29:51;98661.50;;;14.43;59.29
55066;BME280;40964;42.114;24.220;2023-10-09T06:32:37;98674.19;;;14.34;59.48
55066;BME280;40964;42.114;24.220;2023-10-09T06:35:03;98687.38;;;14.41;59.71
55066;BME280;40964;42.114;24.220;2023-10-09T06:37:46;98688.75;;;14.43;59.51
55066;BME280;40964;42.114;24.220;2023-10-09T06:40:36;98694.66;;;14.45;58.81
55066;BME280;40964;42.114;24.220;2023-10-09T06:43:03;98699.09;;;14.52;59.59
55066;BME280;40964;42.114;24.220;2023-10-09T06:45:55;98700.28;;;14.56;59.00
55066;BME280;40964;42.114;24.220;2023-10-09T06:48:44;98706.19;;;14.76;59.02
55066;BME280;40964;42.114;24.220;2023-10-09T06:51:14;98712.72;;;14.92;58.15
55066;BME280;40964;42.114;24.220;2023-10-09T06:58:51;98715.00;;;14.88;57.50
55066;BME280;40964;42.114;24.220;2023-10-09T07:01:21;98727.88;;;15.03;57.52
55066;BME280;40964;42.114;24.220;2023-10-09T07:03:52;98725.31;;;14.96;56.64
55066;BME280;40964;42.114;24.220;2023-10-09T07:06:20;98735.38;;;14.88;56.43
55066;BME280;40964;42.114;24.220;2023-10-09T07:09:00;98728.31;;;15.00;56.17
55066;BME280;40964;42.114;24.220;2023-10-09T07:11:50;98732.97;;;14.86;56.00
55066;BME280;40964;42.114;24.220;2023-10-09T07:14:18;98740.22;;;14.91;55.83
55066;BME280;40964;42.114;24.220;2023-10-09T07:17:02;98740.09;;;15.04;56.96
55066;BME280;40964;42.114;24.220;2023-10-09T07:19:42;98742.38;;;15.19;54.86
55066;BME280;40964;42.114;24.220;2023-10-09T07:22:11;98740.38;;;15.14;54.37
55066;BME280;40964;42.114;24.220;2023-10-09T07:27:19;98734.78;;;15.22;54.42
55066;BME280;40964;42.114;24.220;2023-10-09T07:30:05;98736.41;;;15.53;52.47
55066;BME280;40964;42.114;24.220;2023-10-09T07:32:53;98730.81;;;15.61;52.36
55066;BME280;40964;42.114;24.220;2023-10-09T07:35:22;98723.34;;;15.70;53.06
55066;BME280;40964;42.114;24.220;2023-10-09T07:38:06;98739.94;;;15.66;51.04
55066;BME280;40964;42.114;24.220;2023-10-09T07:40:38;98736.03;;;15.68;51.17
55066;BME280;40964;42.114;24.220;2023-10-09T07:43:23;98736.19;;;15.85;51.22
55066;BME280;40964;42.114;24.220;2023-10-09T07:45:53;98735.56;;;15.71;50.22
55066;BME280;40964;42.114;24.220;2023-10-09T07:48:25;98729.09;;;15.67;50.11
55066;BME280;40964;42.114;24.220;2023-10-09T07:51:11;98733.75;;;15.53;50.29
55066;BME280;40964;42.114;24.220;2023-10-09T07:53:36;98732.34;;;15.51;50.36
55066;BME280;40964;42.114;24.220;2023-10-09T07:56:10;98727.84;;;15.70;50.39
55066;BME280;40964;42.114;24.220;2023-10-09T07:58:39;98717.31;;;15.63;49.41
55066;BME280;40964;42.114;24.220;2023-10-09T08:01:12;98721.44;;;15.59;49.50
55066;BME280;40964;42.114;24.220;2023-10-09T08:03:50;98722.94;;;15.37;49.12
55066;BME280;40964;42.114;24.220;2023-10-09T08:06:36;98716.50;;;15.63;49.49
55066;BME280;40964;42.114;24.220;2023-10-09T08:09:05;98718.41;;;15.74;50.40
55066;BME280;40964;42.114;24.220;2023-10-09T08:11:41;98716.34;;;15.76;48.69
55066;BME280;40964;42.114;24.220;2023-10-09T08:14:10;98714.84;;;15.80;49.13
55066;BME280;40964;42.114;24.220;2023-10-09T08:16:54;98721.56;;;15.94;48.80
55066;BME280;40964;42.114;24.220;2023-10-09T08:19:38;98717.31;;;16.05;49.20
55066;BME280;40964;42.114;24.220;2023-10-09T08:22:24;98699.06;;;16.08;49.10
55066;BME280;40964;42.114;24.220;2023-10-09T08:24:51;98711.31;;;16.33;49.65
55066;BME280;40964;42.114;24.220;2023-10-09T08:27:23;98701.28;;;16.46;48.60
55066;BME280;40964;42.114;24.220;2023-10-09T08:30:04;98701.03;;;16.60;48.38
55066;BME280;40964;42.114;24.220;2023-10-09T08:32:50;98708.81;;;16.73;46.91
55066;BME280;40964;42.114;24.220;2023-10-09T08:35:52;98705.41;;;16.89;48.13
55066;BME280;40964;42.114;24.220;2023-10-09T08:38:21;98701.13;;;17.00;47.97
55066;BME280;40964;42.114;24.220;2023-10-09T08:40:50;98700.47;;;16.81;47.91
55066;BME280;40964;42.114;24.220;2023-10-09T08:43:18;98699.66;;;16.81;48.15
55066;BME280;40964;42.114;24.220;2023-10-09T08:45:48;98693.88;;;16.84;48.50
55066;BME280;40964;42.114;24.220;2023-10-09T08:48:17;98683.28;;;17.12;48.33
55066;BME280;40964;42.114;24.220;2023-10-09T08:50:48;98678.50;;;17.43;47.50
55066;BME280;40964;42.114;24.220;2023-10-09T08:53:15;98680.66;;;17.57;46.83
55066;BME280;40964;42.114;24.220;2023-10-09T08:55:42;98680.94;;;17.73;47.69
55066;BME280;40964;42.114;24.220;2023-10-09T08:58:09;98684.25;;;17.80;46.95
55066;BME280;40964;42.114;24.220;2023-10-09T09:00:47;98674.75;;;17.84;47.16
55066;BME280;40964;42.114;24.220;2023-10-09T09:03:16;98667.97;;;17.93;46.48
55066;BME280;40964;42.114;24.220;2023-10-09T09:05:59;98667.25;;;17.81;45.63
55066;BME280;40964;42.114;24.220;2023-10-09T09:08:29;98672.16;;;17.89;45.72
55066;BME280;40964;42.114;24.220;2023-10-09T09:13:46;98656.50;;;17.93;46.51
55066;BME280;40964;42.114;24.220;2023-10-09T09:16:19;98662.00;;;18.03;46.14
55066;BME280;40964;42.114;24.220;2023-10-09T09:18:56;98659.41;;;17.74;45.60
55066;BME280;40964;42.114;24.220;2023-10-09T09:21:41;98648.69;;;17.86;46.61
55066;BME280;40964;42.114;24.220;2023-10-09T09:24:09;98652.41;;;18.02;44.85
55066;BME280;40964;42.114;24.220;2023-10-09T09:26:47;98641.91;;;18.12;46.07
55066;BME280;40964;42.114;24.220;2023-10-09T09:29:24;98650.81;;;18.39;45.60
55066;BME280;40964;42.114;24.220;2023-10-09T09:32:06;98642.63;;;18.85;45.15
55066;BME280;40964;42.114;24.220;2023-10-09T09:34:49;98622.41;;;18.89;44.55
55066;BME280;40964;42.114;24.220;2023-10-09T09:37:21;98634.72;;;19.17;44.06
55066;BME280;40964;42.114;24.220;2023-10-09T09:39:47;98645.53;;;19.05;43.85
55066;BME280;40964;42.114;24.220;2023-10-09T09:42:15;98639.50;;;18.93;44.85
55066;BME280;40964;42.114;24.220;2023-10-09T09:44:51;98644.94;;;19.03;44.87
55066;BME280;40964;42.114;24.220;2023-10-09T09:47:16;98640.53;;;19.14;43.65
55066;BME280;40964;42.114;24.220;2023-10-09T09:49:50;98634.53;;;19.23;45.21
55066;BME280;40964;42.114;24.220;2023-10-09T09:52:17;98631.88;;;19.28;43.58
55066;BME280;40964;42.114;24.220;2023-10-09T09:54:44;98618.19;;;19.20;43.04
55066;BME280;40964;42.114;24.220;2023-10-09T09:57:12;98575.72;;;19.13;43.17
55066;BME280;40964;42.114;24.220;2023-10-09T09:59:39;98606.44;;;19.16;42.78
55066;BME280;40964;42.114;24.220;2023-10-09T10:02:07;98603.06;;;19.25;44.62
55066;BME280;40964;42.114;24.220;2023-10-09T10:04:38;98600.19;;;19.32;42.80
55066;BME280;40964;42.114;24.220;2023-10-09T10:07:06;98588.56;;;19.16;43.21
55066;BME280;40964;42.114;24.220;2023-10-09T10:09:39;98593.66;;;19.18;43.17
55066;BME280;40964;42.114;24.220;2023-10-09T10:12:06;98583.72;;;19.13;42.69
55066;BME280;40964;42.114;24.220;2023-10-09T10:14:53;98586.66;;;19.12;41.86
55066;BME280;40964;42.114;24.220;2023-10-09T10:17:24;98579.84;;;19.26;42.98
55066;BME280;40964;42.114;24.220;2023-10-09T10:20:04;98575.59;;;19.57;42.80
55066;BME280;40964;42.114;24.220;2023-10-09T10:22:50;98565.78;;;19.63;41.97
55066;BME280;40964;42.114;24.220;2023-10-09T10:28:24;98549.56;;;19.74;40.71
55066;BME280;40964;42.114;24.220;2023-10-09T10:31:11;98548.44;;;20.12;41.07
55066;BME280;40964;42.114;24.220;2023-10-09T10:34:08;98547.09;;;20.05;39.65
55066;BME280;40964;42.114;24.220;2023-10-09T10:36:36;98541.84;;;20.30;41.57
55066;BME280;40964;42.114;24.220;2023-10-09T10:39:02;98538.81;;;20.59;41.27
55066;BME280;40964;42.114;24.220;2023-10-09T10:41:35;98528.41;;;20.83;41.11
55066;BME280;40964;42.114;24.220;2023-10-09T10:44:33;98518.53;;;20.83;39.29
55066;BME280;40964;42.114;24.220;2023-10-09T10:47:26;98517.72;;;20.78;38.83
55066;BME280;40964;42.114;24.220;2023-10-09T10:49:58;98513.16;;;20.68;39.20
55066;BME280;40964;42.114;24.220;2023-10-09T10:52:24;98516.91;;;20.67;38.90
55066;BME280;40964;42.114;24.220;2023-10-09T10:55:22;98499.94;;;20.36;38.67
55066;BME280;40964;42.114;24.220;2023-10-09T10:58:00;98483.47;;;20.49;39.18
55066;BME280;40964;42.114;24.220;2023-10-09T11:00:29;98501.38;;;20.64;38.64
55066;BME280;40964;42.114;24.220;2023-10-09T11:03:20;98497.41;;;20.72;38.64
55066;BME280;40964;42.114;24.220;2023-10-09T11:06:01;98495.28;;;20.89;38.89
55066;BME280;40964;42.114;24.220;2023-10-09T11:08:44;98487.81;;;21.27;40.71
55066;BME280;40964;42.114;24.220;2023-10-09T11:11:19;98474.97;;;21.44;39.22
55066;BME280;40964;42.114;24.220;2023-10-09T11:13:45;98474.69;;;21.50;38.09
55066;BME280;40964;42.114;24.220;2023-10-09T11:16:24;98474.16;;;21.48;38.40
55066;BME280;40964;42.114;24.220;2023-10-09T11:19:13;98465.88;;;21.14;37.55
55066;BME280;40964;42.114;24.220;2023-10-09T11:22:00;98457.03;;;21.24;40.70
55066;BME280;40964;42.114;24.220;2023-10-09T11:24:33;98453.31;;;21.30;38.20
55066;BME280;40964;42.114;24.220;2023-10-09T11:27:04;98449.28;;;20.97;38.07
55066;BME280;40964;42.114;24.220;2023-10-09T11:29:33;98442.06;;;21.08;38.78
55066;BME280;40964;42.114;24.220;2023-10-09T11:32:14;98431.38;;;20.87;38.23
55066;BME280;40964;42.114;24.220;2023-10-09T11:34:50;98435.94;;;21.33;37.71
55066;BME280;40964;42.114;24.220;2023-10-09T11:37:21;98422.25;;;21.44;37.22
55066;BME280;40964;42.114;24.220;2023-10-09T11:39:59;98415.25;;;21.59;37.81
55066;BME280;40964;42.114;24.220;2023-10-09T11:42:29;98401.91;;;21.38;36.53
55066;BME280;40964;42.114;24.220;2023-10-09T11:45:25;98381.63;;;21.07;37.59
55066;BME280;40964;42.114;24.220;2023-10-09T11:47:54;98389.84;;;21.46;38.70
55066;BME280;40964;42.114;24.220;2023-10-09T11:50:43;98396.81;;;21.52;37.49
55066;BME280;40964;42.114;24.220;2023-10-09T11:53:10;98403.19;;;21.61;37.58
55066;BME280;40964;42.114;24.220;2023-10-09T11:55:49;98401.13;;;21.38;36.59
55066;BME280;40964;42.114;24.220;2023-10-09T11:58:18;98406.22;;;21.39;36.53
55066;BME280;40964;42.114;24.220;2023-10-09T12:00:56;98405.13;;;21.25;37.20
55066;BME280;40964;42.114;24.220;2023-10-09T12:03:28;98405.69;;;21.32;37.25
55066;BME280;40964;42.114;24.220;2023-10-09T12:06:00;98408.88;;;21.24;38.06
55066;BME280;40964;42.114;24.220;2023-10-09T12:08:39;98392.03;;;21.29;36.70
55066;BME280;40964;42.114;24.220;2023-10-09T12:11:08;98387.22;;;21.41;36.67
55066;BME280;40964;42.114;24.220;2023-10-09T12:13:35;98375.66;;;21.50;36.90
55066;BME280;40964;42.114;24.220;2023-10-09T12:16:04;98366.81;;;21.55;36.20
55066;BME280;40964;42.114;24.220;2023-10-09T12:18:35;98349.31;;;21.73;35.73
55066;BME280;40964;42.114;24.220;2023-10-09T12:21:02;98347.72;;;21.72;35.35
55066;BME280;40964;42.114;24.220;2023-10-09T12:23:29;98356.84;;;21.71;36.16
55066;BME280;40964;42.114;24.220;2023-10-09T12:25:54;98338.72;;;21.58;35.88
55066;BME280;40964;42.114;24.220;2023-10-09T12:28:22;98344.13;;;21.42;36.11
55066;BME280;40964;42.114;24.220;2023-10-09T12:30:48;98336.03;;;21.58;36.67
55066;BME280;40964;42.114;24.220;2023-10-09T12:33:17;98341.44;;;21.37;36.10
55066;BME280;40964;42.114;24.220;2023-10-09T12:35:43;98336.09;;;21.42;36.42
55066;BME280;40964;42.114;24.220;2023-10-09T12:38:13;98330.19;;;21.45;35.66
55066;BME280;40964;42.114;24.220;2023-10-09T12:40:44;98319.47;;;21.50;36.20
55066;BME280;40964;42.114;24.220;2023-10-09T12:43:17;98318.81;;;21.74;36.07
55066;BME280;40964;42.114;24.220;2023-10-09T12:45:48;98317.94;;;21.89;36.83
55066;BME280;40964;42.114;24.220;2023-10-09T12:48:13;98315.97;;;21.99;34.71
55066;BME280;40964;42.114;24.220;2023-10-09T12:50:40;98319.09;;;22.22;35.71
55066;BME280;40964;42.114;24.220;2023-10-09T12:53:10;98312.66;;;22.23;35.43
55066;BME280;40964;42.114;24.220;2023-10-09T12:55:40;98296.53;;;22.28;35.44
55066;BME280;40964;42.114;24.220;2023-10-09T12:58:10;98300.44;;;22.41;36.35
55066;BME280;40964;42.114;24.220;2023-10-09T13:00:40;98289.06;;;22.54;34.34
55066;BME280;40964;42.114;24.220;2023-10-09T13:03:28;98283.78;;;22.73;35.63
55066;BME280;40964;42.114;24.220;2023-10-09T13:05:57;98284.38;;;22.99;35.30
55066;BME280;40964;42.114;24.220;2023-10-09T13:08:27;98281.50;;;22.90;33.90
55066;BME280;40964;42.114;24.220;2023-10-09T13:11:08;98280.78;;;22.79;33.46
55066;BME280;40964;42.114;24.220;2023-10-09T13:13:39;98268.47;;;22.78;33.44
55066;BME280;40964;42.114;24.220;2023-10-09T13:16:25;98264.66;;;22.55;34.99
55066;BME280;40964;42.114;24.220;2023-10-09T13:18:57;98265.41;;;22.32;34.73
55066;BME280;40964;42.114;24.220;2023-10-09T13:21:28;98269.88;;;22.07;35.22
55066;BME280;40964;42.114;24.220;2023-10-09T13:24:02;98259.25;;;21.92;35.78
55066;BME280;40964;42.114;24.220;2023-10-09T13:26:28;98254.63;;;22.03;34.28
55066;BME280;40964;42.114;24.220;2023-10-09T13:28:56;98257.50;;;22.46;34.53
55066;BME280;40964;42.114;24.220;2023-10-09T13:31:24;98253.31;;;22.34;34.12
55066;BME280;40964;42.114;24.220;2023-10-09T13:33:52;98249.34;;;22.32;34.84
55066;BME280;40964;42.114;24.220;2023-10-09T13:36:24;98248.13;;;22.48;34.12
55066;BME280;40964;42.114;24.220;2023-10-09T13:39:00;98247.63;;;22.70;35.68
55066;BME280;40964;42.114;24.220;2023-10-09T13:41:46;98236.41;;;22.68;33.90
55066;BME280;40964;42.114;24.220;2023-10-09T13:44:11;98241.56;;;22.59;33.59
55066;BME280;40964;42.114;24.220;2023-10-09T13:46:37;98230.34;;;22.57;33.75
55066;BME280;40964;42.114;24.220;2023-10-09T13:49:10;98220.22;;;22.49;35.53